Language selection

My Weather Profile Weather Topics  | 

Atlantic - Newfoundland: Past 24 Hour Conditions

 

East Chedabucto Bay - 44488

09:00 AM ADT 22 September 2021Buoy position: 45.45N 60.95W
Disclaimer

This table is a summary of hourly weather conditions for the past 24 hours.
Please note that these observations might not always be representative of weather conditions over their associated marine area.

Date / Time
(ADT)
Wind(knots) Wave height(m) Wave period(s) Pressure(kPa) Air tempC) Water tempC)
22 September 2021
9:00 WSW 9 gust 10 0.5 5.3 102.8 16 18
8:00 WSW 13 gust 15 0.6 4.8 102.8 16 18
7:00 WSW 15 gust 17 0.5 4.2 102.8 16 18
6:00 WSW 15 gust 19 0.5 4.4 102.8 17 18
5:00 WSW 16 gust 19 0.6 4.8 102.8 17 18
4:00 WSW 15 gust 17 0.6 5.1 102.9 17 18
3:00 WSW 14 gust 17 0.6 5.7 102.9 17 18
2:00 SW 13 gust 15 0.6 5.2 103.0 17 18
1:00 SW 12 gust 15 0.6 5.7 103.0 17 18
0:00 SW 12 gust 15 0.6 5.5 103.0 17 18
21 September 2021
23:00 SW 13 gust 16 0.7 5.1 103.1 17 18
22:00 SW 15 gust 18 0.7 5.3 103.1 17 18
21:00 SW 16 gust 19 0.7 5.4 103.1 17 18
20:00 SSW 15 gust 17 0.7 5.3 103.0 17 18
19:00 SSW 16 gust 18 0.7 5.9 103.1 18 18
18:00 SSW 17 gust 21 0.7 5.2 103.1 18 18
17:00 SSW 16 gust 19 0.7 4.8 103.1 19 18
16:00 SSW 14 gust 16 0.6 5.8 103.1 19 18
15:00 SSW 12 gust 13 0.7 8.3 103.1 19 18
14:00 SSW 5 gust 6 0.6 8.7 103.2 19 18
13:00 SW 3 gust 4 0.6 8.3 103.3 18 18
12:00 SW 4 gust 5 0.6 9.1 103.3 17 18
11:00 SSW 6 gust 8 0.7 9.1 103.3 17 18
10:00 SW 5 gust 8 0.8 8.3 103.3 16 18
9:00 SW 7 gust 9 0.9 8.2 103.3 16 18

Zoom-in to make a selection

Map of Atlantic - Newfoundland marine weather areas Banquereau - 44139 East Chedabucto Bay - 44488 West Chedabucto Bay - 44489 Blanc-Sablon Airport Cap Whittle Chevery Natashquan Airport Heath Point Îles de la Madeleine Airport Miscou Island Eskasoni (First Nations) Grand Étang Ingonish Beach North Mountain St.Paul Island J.A. Douglas McCurdy Sydney Airport Charlottetown Airport East Point North Cape Argentia Bonavista Burgeo Cape Race Corner Brook Daniel's Harbour Englee Ferolle Point La Scie Port aux Basques Rocky Harbour Sagona Island St. Anthony Airport St. John's Int'l Airport St. Lawrence Stephenville Airport Twillingate Winterland Branch Hill Wreckhouse Grates Cove Pool's Island Marticot Island Long Pond Cartwright Airport Mary's Harbour
Legend:
buoy Buoy
land station Land Station

Atlantic - Newfoundland Area

Another Region

What we are doing

Date modified: